createdAt,value
2017-11-13T00:00:38.933Z,61.0
2017-11-13T00:02:00.442Z,60.9
2017-11-13T00:03:01.831Z,61.3
2017-11-13T00:04:23.309Z,61.0
2017-11-13T00:05:24.702Z,61.5
2017-11-13T00:06:46.182Z,61.3
2017-11-13T00:07:47.574Z,60.9
2017-11-13T00:09:09.062Z,60.9
2017-11-13T00:10:10.454Z,60.9
2017-11-13T00:11:31.934Z,61.0
2017-11-13T00:12:33.325Z,60.9
2017-11-13T00:13:54.805Z,61.0
2017-11-13T00:14:56.198Z,61.1
2017-11-13T00:16:17.701Z,61.1
2017-11-13T00:17:19.094Z,61.2
2017-11-13T00:18:40.574Z,61.1
2017-11-13T00:19:41.971Z,60.9
2017-11-13T00:21:03.449Z,61.1
2017-11-13T00:22:04.839Z,61.2
2017-11-13T00:23:26.334Z,61.2
2017-11-13T00:24:27.726Z,61.1
2017-11-13T00:25:49.206Z,61.1
2017-11-13T00:26:50.599Z,60.8
2017-11-13T00:28:12.083Z,60.8
2017-11-13T00:29:13.478Z,60.8
2017-11-13T00:30:34.974Z,61.0
2017-11-13T00:31:36.359Z,60.8
2017-11-13T00:32:57.839Z,60.9
2017-11-13T00:33:59.231Z,60.8
2017-11-13T00:35:20.711Z,60.8
2017-11-13T00:36:22.102Z,60.9
2017-11-13T00:37:43.695Z,61.0
2017-11-13T00:38:45.086Z,60.9
2017-11-13T00:40:06.566Z,61.1
2017-11-13T00:41:07.958Z,60.7
2017-11-13T00:42:29.438Z,60.4
2017-11-13T00:43:30.831Z,60.5
2017-11-13T00:44:52.470Z,60.5
2017-11-13T00:45:53.864Z,60.4
2017-11-13T00:47:15.350Z,60.3
2017-11-13T00:48:16.734Z,60.3
2017-11-13T00:49:38.214Z,60.3
2017-11-13T00:50:39.608Z,60.5
2017-11-13T00:52:01.095Z,60.4
2017-11-13T00:53:02.487Z,60.4
2017-11-13T00:54:23.967Z,60.6
2017-11-13T00:55:25.359Z,60.3
2017-11-13T00:56:46.838Z,60.4
2017-11-13T00:57:48.231Z,60.4
2017-11-13T00:59:09.727Z,60.6
2017-11-13T01:00:11.119Z,60.7
2017-11-13T01:01:32.599Z,61.1
2017-11-13T01:02:33.994Z,61.1
2017-11-13T01:03:55.471Z,61.1
2017-11-13T01:04:56.864Z,61.0
2017-11-13T01:06:18.360Z,60.6
2017-11-13T01:07:19.751Z,60.4
2017-11-13T01:08:41.231Z,60.8
2017-11-13T01:09:42.623Z,60.5
2017-11-13T01:11:04.105Z,60.4
2017-11-13T01:12:05.495Z,60.3
2017-11-13T01:13:27.000Z,60.2
2017-11-13T01:14:28.391Z,60.1
2017-11-13T01:15:49.872Z,60.1
2017-11-13T01:16:51.263Z,60.2
2017-11-13T01:18:12.743Z,60.3
2017-11-13T01:19:14.135Z,60.1
2017-11-13T01:20:35.632Z,60.1
2017-11-13T01:21:37.023Z,60.1
2017-11-13T01:22:58.503Z,60.3
2017-11-13T01:23:59.895Z,60.2
2017-11-13T01:25:21.382Z,60.2
2017-11-13T01:26:22.768Z,60.2
2017-11-13T01:27:44.343Z,60.4
2017-11-13T01:28:45.736Z,60.4
2017-11-13T01:30:07.217Z,60.6
2017-11-13T01:31:08.607Z,61.1
2017-11-13T01:32:30.106Z,60.8
2017-11-13T01:33:31.480Z,61.1
2017-11-13T01:34:53.112Z,60.6
2017-11-13T01:35:54.504Z,60.5
2017-11-13T01:37:15.988Z,60.5
2017-11-13T01:38:17.375Z,60.4
2017-11-13T01:39:38.856Z,60.3
2017-11-13T01:40:40.247Z,60.3
2017-11-13T01:42:01.736Z,60.1
2017-11-13T01:43:03.135Z,60.1
2017-11-13T01:44:24.609Z,60.1
2017-11-13T01:45:26.000Z,60.1
2017-11-13T01:46:47.488Z,60.1
2017-11-13T01:47:48.880Z,60.3
2017-11-13T01:49:10.473Z,60.1
2017-11-13T01:50:11.864Z,60.2
2017-11-13T01:51:33.352Z,60.2
2017-11-13T01:52:34.744Z,60.2
2017-11-13T01:53:56.223Z,60.0
2017-11-13T01:54:57.616Z,60.4
2017-11-13T01:56:19.249Z,60.4
2017-11-13T01:57:20.640Z,60.3
2017-11-13T01:58:42.120Z,60.3
2017-11-13T01:59:43.512Z,60.5
2017-11-13T02:01:04.992Z,60.8
2017-11-13T02:02:06.384Z,60.3
2017-11-13T02:03:27.984Z,60.9
2017-11-13T02:04:29.376Z,60.9
2017-11-13T02:05:50.867Z,60.5
2017-11-13T02:06:52.256Z,60.5
2017-11-13T02:08:13.735Z,60.3
2017-11-13T02:09:15.131Z,60.2
2017-11-13T02:10:36.624Z,60.3
2017-11-13T02:11:38.017Z,60.2
2017-11-13T02:12:59.496Z,60.2
2017-11-13T02:14:00.888Z,60.2
2017-11-13T02:15:22.368Z,60.1
2017-11-13T02:16:23.760Z,60.0
2017-11-13T02:17:45.259Z,60.6
2017-11-13T02:18:46.653Z,60.3
2017-11-13T02:20:08.141Z,60.2
2017-11-13T02:21:09.549Z,60.6
2017-11-13T02:22:31.019Z,60.3
2017-11-13T02:23:32.401Z,60.2
2017-11-13T02:24:54.033Z,60.3
2017-11-13T02:25:55.424Z,60.4
2017-11-13T02:27:16.905Z,60.1
2017-11-13T02:28:18.319Z,60.4
2017-11-13T02:29:39.777Z,60.4
2017-11-13T02:30:41.169Z,60.7
2017-11-13T02:32:02.674Z,60.5
2017-11-13T02:33:04.066Z,60.3
2017-11-13T02:34:25.545Z,60.5
2017-11-13T02:35:26.943Z,60.3
2017-11-13T02:36:48.418Z,60.4
2017-11-13T02:37:49.809Z,60.4
2017-11-13T02:39:11.433Z,60.3
2017-11-13T02:40:12.826Z,60.6
2017-11-13T02:41:34.314Z,60.2
2017-11-13T02:42:35.705Z,60.0
2017-11-13T02:43:57.186Z,60.2
2017-11-13T02:44:58.577Z,60.5
2017-11-13T02:46:20.177Z,60.3
2017-11-13T02:47:21.569Z,60.3
2017-11-13T02:48:43.050Z,60.3
2017-11-13T02:49:44.441Z,60.5
2017-11-13T02:51:05.922Z,60.4
2017-11-13T02:52:07.325Z,60.4
2017-11-13T02:53:28.819Z,60.6
2017-11-13T02:54:30.211Z,60.4
2017-11-13T02:55:51.690Z,60.4
2017-11-13T02:56:53.081Z,60.6
2017-11-13T02:58:14.561Z,60.4
2017-11-13T02:59:15.953Z,60.2
2017-11-13T03:00:37.450Z,60.3
2017-11-13T03:01:38.842Z,60.4
2017-11-13T03:03:00.321Z,60.7
2017-11-13T03:04:01.714Z,60.6
2017-11-13T03:05:23.194Z,60.5
2017-11-13T03:06:24.585Z,60.4
2017-11-13T03:07:46.218Z,60.2
2017-11-13T03:08:47.609Z,60.5
2017-11-13T03:10:09.090Z,60.2
2017-11-13T03:11:10.481Z,60.1
2017-11-13T03:12:31.961Z,60.5
2017-11-13T03:13:33.354Z,60.1
2017-11-13T03:14:54.938Z,60.3
2017-11-13T03:15:56.330Z,60.4
2017-11-13T03:17:17.810Z,60.4
2017-11-13T03:18:19.201Z,60.5
2017-11-13T03:19:40.683Z,60.0
2017-11-13T03:20:42.074Z,60.6
2017-11-13T03:22:03.572Z,60.2
2017-11-13T03:23:04.962Z,60.2
2017-11-13T03:24:26.442Z,60.2
2017-11-13T03:25:27.834Z,60.0
2017-11-13T03:26:49.321Z,60.1
2017-11-13T03:27:50.706Z,60.2
2017-11-13T03:29:12.298Z,60.5
2017-11-13T03:30:13.691Z,60.3
2017-11-13T03:31:35.178Z,60.3
2017-11-13T03:32:36.570Z,60.3
2017-11-13T03:33:58.050Z,60.1
2017-11-13T03:34:59.443Z,60.2
2017-11-13T03:36:20.938Z,60.2
2017-11-13T03:37:22.330Z,60.6
2017-11-13T03:38:43.818Z,60.5
2017-11-13T03:39:45.211Z,60.6
2017-11-13T03:41:06.691Z,60.6
2017-11-13T03:42:08.082Z,60.6
2017-11-13T03:43:29.755Z,60.0
2017-11-13T03:44:31.149Z,60.4
2017-11-13T03:45:52.626Z,60.1
2017-11-13T03:46:54.018Z,60.1
2017-11-13T03:48:15.499Z,60.3
2017-11-13T03:49:16.890Z,60.5
2017-11-13T03:50:38.395Z,60.2
2017-11-13T03:51:39.786Z,60.6
2017-11-13T03:53:01.266Z,60.2
2017-11-13T03:54:02.659Z,60.4
2017-11-13T03:55:24.139Z,60.4
2017-11-13T03:56:25.534Z,60.1
2017-11-13T03:57:47.123Z,60.6
2017-11-13T03:58:48.514Z,60.4
2017-11-13T04:00:09.999Z,60.2
2017-11-13T04:01:11.387Z,60.2
2017-11-13T04:02:32.871Z,60.0
2017-11-13T04:03:34.259Z,60.5
2017-11-13T04:04:55.755Z,60.3
2017-11-13T04:05:57.147Z,60.5
2017-11-13T04:07:18.627Z,60.1
2017-11-13T04:08:20.019Z,60.1
2017-11-13T04:09:41.499Z,60.2
2017-11-13T04:10:42.891Z,60.2
2017-11-13T04:12:04.387Z,60.4
2017-11-13T04:13:05.779Z,60.4
2017-11-13T04:14:27.260Z,60.4
2017-11-13T04:15:28.651Z,60.4
2017-11-13T04:16:50.131Z,60.5
2017-11-13T04:17:51.523Z,60.3
2017-11-13T04:19:13.020Z,60.4
2017-11-13T04:20:14.411Z,60.5
2017-11-13T04:21:35.891Z,60.3
2017-11-13T04:22:37.283Z,60.5
2017-11-13T04:23:58.763Z,60.5
2017-11-13T04:25:00.156Z,60.2
2017-11-13T04:26:21.747Z,60.4
2017-11-13T04:27:23.139Z,60.3
2017-11-13T04:28:44.620Z,60.3
2017-11-13T04:29:46.011Z,60.4
2017-11-13T04:31:07.491Z,60.1
2017-11-13T04:32:08.883Z,60.4
2017-11-13T04:33:30.380Z,60.5
2017-11-13T04:34:31.775Z,60.2
2017-11-13T04:35:53.252Z,60.5
2017-11-13T04:36:54.643Z,60.6
2017-11-13T04:38:16.127Z,60.9
2017-11-13T04:39:17.516Z,60.8
2017-11-13T04:40:39.012Z,61.3
2017-11-13T04:41:40.404Z,61.3
2017-11-13T04:43:01.884Z,61.2
2017-11-13T04:44:03.276Z,61.1
2017-11-13T04:45:24.756Z,61.0
2017-11-13T04:46:26.147Z,61.2
2017-11-13T04:47:47.639Z,61.1
2017-11-13T04:48:49.028Z,61.2
2017-11-13T04:50:10.516Z,61.2
2017-11-13T04:51:11.908Z,60.8
2017-11-13T04:52:33.387Z,61.1
2017-11-13T04:53:34.780Z,60.8
2017-11-13T04:54:56.276Z,60.4
2017-11-13T04:55:57.674Z,60.3
2017-11-13T04:57:19.165Z,60.3
2017-11-13T04:58:20.540Z,60.2
2017-11-13T04:59:42.020Z,60.2
2017-11-13T05:00:43.411Z,60.3
2017-11-13T05:02:05.052Z,60.2
2017-11-13T05:03:06.445Z,60.6
2017-11-13T05:04:27.924Z,60.5
2017-11-13T05:05:29.316Z,60.7
2017-11-13T05:06:50.807Z,60.3
2017-11-13T05:07:52.197Z,60.2
2017-11-13T05:09:13.688Z,60.2
2017-11-13T05:10:15.077Z,60.6
2017-11-13T05:11:36.556Z,60.1
2017-11-13T05:12:37.948Z,60.2
2017-11-13T05:13:59.427Z,60.4
2017-11-13T05:15:00.823Z,60.2
2017-11-13T05:16:22.316Z,60.1
2017-11-13T05:17:23.711Z,60.6
2017-11-13T05:18:45.188Z,60.3
2017-11-13T05:19:46.579Z,60.7
2017-11-13T05:21:08.060Z,61.2
2017-11-13T05:22:09.452Z,61.0
2017-11-13T05:23:30.943Z,60.9
2017-11-13T05:24:32.333Z,61.0
2017-11-13T05:25:53.812Z,61.0
2017-11-13T05:26:55.205Z,61.4
2017-11-13T05:28:16.685Z,61.2
2017-11-13T05:29:18.077Z,61.6
2017-11-13T05:30:39.581Z,61.3
2017-11-13T05:31:40.973Z,61.0
2017-11-13T05:33:02.470Z,61.5
2017-11-13T05:34:03.852Z,61.0
2017-11-13T05:35:25.333Z,61.5
2017-11-13T05:36:26.724Z,61.4
2017-11-13T05:37:48.213Z,61.2
2017-11-13T05:38:49.605Z,61.0
2017-11-13T05:40:11.085Z,60.9
2017-11-13T05:41:12.479Z,61.0
2017-11-13T05:42:33.957Z,61.1
2017-11-13T05:43:35.349Z,61.1
2017-11-13T05:44:56.845Z,60.6
2017-11-13T05:45:58.243Z,60.3
2017-11-13T05:47:19.717Z,60.1
2017-11-13T05:48:21.112Z,60.1
2017-11-13T05:49:42.591Z,60.4
2017-11-13T05:50:43.982Z,60.2
2017-11-13T05:52:05.477Z,60.0
2017-11-13T05:53:06.869Z,60.0
2017-11-13T05:54:28.357Z,60.4
2017-11-13T05:55:29.749Z,60.5
2017-11-13T05:56:51.228Z,60.7
2017-11-13T05:57:52.621Z,60.7
2017-11-13T05:59:14.118Z,60.2
2017-11-13T06:00:15.509Z,60.6
2017-11-13T06:01:36.998Z,60.2
2017-11-13T06:02:38.389Z,60.2
2017-11-13T06:03:59.878Z,60.3
2017-11-13T06:05:01.261Z,60.3
2017-11-13T06:06:22.757Z,60.8
2017-11-13T06:07:24.150Z,61.1
2017-11-13T06:08:45.629Z,61.1
2017-11-13T06:09:47.022Z,61.1
2017-11-13T06:11:08.502Z,60.9
2017-11-13T06:12:09.893Z,61.0
2017-11-13T06:13:31.398Z,60.8
2017-11-13T06:14:32.789Z,61.3
2017-11-13T06:15:54.277Z,61.4
2017-11-13T06:16:55.669Z,61.1
2017-11-13T06:18:17.149Z,61.2
2017-11-13T06:19:18.541Z,61.1
2017-11-13T06:20:40.050Z,61.1
2017-11-13T06:21:41.437Z,61.2
2017-11-13T06:23:02.926Z,61.2
2017-11-13T06:24:04.317Z,61.2
2017-11-13T06:25:25.797Z,61.2
2017-11-13T06:26:27.190Z,61.0
2017-11-13T06:27:48.738Z,61.1
2017-11-13T06:28:50.117Z,61.0
2017-11-13T06:30:11.598Z,60.6
2017-11-13T06:31:12.989Z,60.3
2017-11-13T06:32:34.469Z,60.2
2017-11-13T06:33:35.863Z,60.4
2017-11-13T06:34:57.518Z,60.2
2017-11-13T06:35:58.910Z,60.5
2017-11-13T06:37:20.390Z,60.7
2017-11-13T06:38:21.782Z,60.3
2017-11-13T06:39:43.279Z,60.4
2017-11-13T06:40:44.669Z,60.5
2017-11-13T06:42:06.173Z,60.5
2017-11-13T06:43:07.567Z,60.4
2017-11-13T06:44:29.047Z,60.1
2017-11-13T06:45:30.438Z,60.3
2017-11-13T06:46:51.918Z,60.2
2017-11-13T06:47:53.310Z,60.3
2017-11-13T06:49:14.806Z,60.3
2017-11-13T06:50:16.199Z,60.7
2017-11-13T06:51:37.678Z,60.6
2017-11-13T06:52:39.071Z,60.1
2017-11-13T06:54:00.559Z,60.2
2017-11-13T06:55:01.950Z,60.2
2017-11-13T06:56:23.454Z,60.2
2017-11-13T06:57:24.846Z,59.9
2017-11-13T06:58:46.328Z,59.9
2017-11-13T06:59:47.718Z,60.1
2017-11-13T07:01:09.199Z,59.8
2017-11-13T07:02:10.590Z,60.1
2017-11-13T07:03:32.095Z,59.9
2017-11-13T07:04:33.487Z,60.1
2017-11-13T07:05:54.966Z,60.2
2017-11-13T07:06:56.358Z,60.4
2017-11-13T07:08:17.838Z,60.2
2017-11-13T07:09:19.235Z,59.7
2017-11-13T07:10:40.727Z,59.7
2017-11-13T07:11:42.126Z,59.7
2017-11-13T07:13:03.601Z,59.3
2017-11-13T07:14:04.991Z,59.0
2017-11-13T07:15:26.472Z,59.0
2017-11-13T07:16:27.864Z,59.0
2017-11-13T07:17:49.367Z,59.3
2017-11-13T07:18:50.759Z,59.4
2017-11-13T07:20:12.271Z,59.2
2017-11-13T07:21:13.668Z,59.1
2017-11-13T07:22:35.144Z,59.2
2017-11-13T07:23:36.535Z,59.1
2017-11-13T07:24:58.031Z,58.6
2017-11-13T07:25:59.430Z,59.2
2017-11-13T07:27:20.903Z,59.1
2017-11-13T07:28:22.296Z,59.3
2017-11-13T07:29:43.791Z,59.1
2017-11-13T07:30:45.175Z,58.9
2017-11-13T07:32:06.696Z,59.1
2017-11-13T07:33:08.087Z,59.1
2017-11-13T07:34:29.567Z,59.0
2017-11-13T07:35:30.959Z,59.1
2017-11-13T07:36:52.448Z,59.0
2017-11-13T07:37:53.839Z,58.8
2017-11-13T07:39:15.337Z,59.0
2017-11-13T07:40:16.728Z,59.1
2017-11-13T07:41:38.207Z,59.3
2017-11-13T07:42:39.600Z,59.0
2017-11-13T07:44:01.080Z,59.0
2017-11-13T07:45:02.472Z,59.0
2017-11-13T07:46:23.976Z,59.2
2017-11-13T07:47:25.367Z,59.1
2017-11-13T07:48:46.855Z,59.9
2017-11-13T07:49:48.247Z,59.9
2017-11-13T07:51:09.734Z,59.7
2017-11-13T07:52:11.119Z,59.6
2017-11-13T07:53:32.616Z,59.6
2017-11-13T07:54:34.007Z,59.9
2017-11-13T07:55:55.496Z,60.1
2017-11-13T07:56:56.888Z,59.9
2017-11-13T07:58:18.368Z,59.8
2017-11-13T07:59:19.763Z,59.4
2017-11-13T08:00:41.269Z,58.8
2017-11-13T08:01:42.656Z,59.0
2017-11-13T08:03:04.152Z,59.0
2017-11-13T08:04:05.536Z,59.1
2017-11-13T08:05:27.016Z,59.2
2017-11-13T08:06:28.408Z,59.3
2017-11-13T08:07:49.913Z,59.3
2017-11-13T08:08:51.307Z,58.7
2017-11-13T08:10:12.793Z,58.8
2017-11-13T08:11:14.184Z,58.9
2017-11-13T08:12:35.664Z,59.0
2017-11-13T08:13:37.057Z,58.9
2017-11-13T08:14:58.553Z,58.7
2017-11-13T08:15:59.945Z,58.4
2017-11-13T08:17:21.424Z,59.1
2017-11-13T08:18:22.817Z,59.1
2017-11-13T08:19:44.297Z,59.1
2017-11-13T08:20:45.688Z,59.2
2017-11-13T08:22:07.192Z,58.7
2017-11-13T08:23:08.585Z,58.8
2017-11-13T08:24:30.072Z,58.8
2017-11-13T08:25:31.464Z,58.8
2017-11-13T08:26:52.945Z,59.1
2017-11-13T08:27:54.336Z,59.1
2017-11-13T08:29:15.835Z,59.2
2017-11-13T08:30:17.217Z,59.3
2017-11-13T08:31:38.696Z,59.1
2017-11-13T08:32:40.088Z,59.1
2017-11-13T08:34:01.575Z,59.4
2017-11-13T08:35:02.971Z,59.3
2017-11-13T08:36:24.457Z,59.2
2017-11-13T08:37:25.849Z,59.0
2017-11-13T08:38:47.353Z,59.1
2017-11-13T08:39:48.745Z,59.3
2017-11-13T08:41:10.226Z,58.9
2017-11-13T08:42:11.617Z,59.9
2017-11-13T08:43:33.137Z,59.6
2017-11-13T08:44:34.529Z,59.8
2017-11-13T08:45:56.012Z,59.6
2017-11-13T08:46:57.400Z,59.9
2017-11-13T08:48:18.889Z,59.0
2017-11-13T08:49:20.281Z,59.2
2017-11-13T08:50:41.777Z,59.0
2017-11-13T08:51:43.169Z,58.8
2017-11-13T08:53:04.657Z,58.9
2017-11-13T08:54:06.049Z,58.5
2017-11-13T08:55:27.537Z,58.5
2017-11-13T08:56:28.932Z,58.8
2017-11-13T08:57:50.425Z,58.7
2017-11-13T08:58:51.817Z,58.8
2017-11-13T09:00:13.305Z,58.8
2017-11-13T09:01:14.705Z,58.8
2017-11-13T09:02:36.194Z,59.5
2017-11-13T09:03:37.585Z,59.4
2017-11-13T09:04:59.225Z,59.3
2017-11-13T09:06:00.618Z,58.7
2017-11-13T09:07:22.097Z,58.6
2017-11-13T09:08:23.489Z,58.8
2017-11-13T09:09:44.978Z,58.7
2017-11-13T09:10:46.361Z,59.0
2017-11-13T09:12:07.869Z,59.0
2017-11-13T09:13:09.258Z,58.7
2017-11-13T09:14:30.737Z,58.9
2017-11-13T09:15:32.129Z,58.8
2017-11-13T09:16:53.609Z,59.0
2017-11-13T09:17:55.002Z,59.1
2017-11-13T09:19:16.546Z,59.3
2017-11-13T09:20:17.938Z,59.2
2017-11-13T09:21:39.417Z,59.1
2017-11-13T09:22:40.810Z,59.0
2017-11-13T09:24:02.289Z,59.3
2017-11-13T09:25:03.681Z,59.3
2017-11-13T09:26:25.273Z,59.5
2017-11-13T09:27:26.666Z,59.4
2017-11-13T09:28:48.154Z,59.7
2017-11-13T09:29:49.545Z,59.5
2017-11-13T09:31:11.026Z,59.9
2017-11-13T09:32:12.418Z,59.8
2017-11-13T09:33:33.922Z,59.0
2017-11-13T09:34:35.314Z,59.0
2017-11-13T09:35:56.794Z,59.0
2017-11-13T09:36:58.186Z,58.6
2017-11-13T09:38:19.666Z,58.5
2017-11-13T09:39:21.057Z,58.8
2017-11-13T09:40:42.556Z,58.5
2017-11-13T09:41:43.947Z,59.1
2017-11-13T09:43:05.426Z,58.5
2017-11-13T09:44:06.818Z,59.0
2017-11-13T09:45:28.308Z,59.0
2017-11-13T09:46:29.691Z,59.1
2017-11-13T09:47:51.194Z,58.7
2017-11-13T09:48:52.586Z,59.0
2017-11-13T09:50:14.066Z,58.9
2017-11-13T09:51:15.459Z,58.9
2017-11-13T09:52:36.946Z,58.4
2017-11-13T09:53:38.338Z,59.1
2017-11-13T09:54:59.834Z,58.3
2017-11-13T09:56:01.228Z,58.5
2017-11-13T09:57:22.714Z,58.5
2017-11-13T09:58:24.106Z,58.4
2017-11-13T09:59:45.618Z,58.2
2017-11-13T10:00:47.018Z,58.5
2017-11-13T10:02:08.518Z,58.4
2017-11-13T10:03:09.906Z,58.5
2017-11-13T10:04:31.388Z,58.6
2017-11-13T10:05:32.778Z,58.3
2017-11-13T10:06:54.258Z,58.3
2017-11-13T10:07:55.651Z,58.6
2017-11-13T10:09:17.155Z,58.1
2017-11-13T10:10:18.545Z,58.4
2017-11-13T10:11:40.037Z,58.3
2017-11-13T10:12:41.426Z,58.3
2017-11-13T10:14:02.906Z,57.4
2017-11-13T10:15:04.298Z,57.8
2017-11-13T10:16:25.802Z,57.4
2017-11-13T10:17:27.195Z,57.4
2017-11-13T10:18:48.674Z,57.1
2017-11-13T10:19:50.067Z,57.2
2017-11-13T10:21:11.547Z,56.7
2017-11-13T10:22:12.939Z,57.0
2017-11-13T10:23:34.435Z,57.2
2017-11-13T10:24:35.826Z,57.3
2017-11-13T10:25:57.306Z,57.0
2017-11-13T10:26:58.699Z,56.9
2017-11-13T10:28:20.183Z,56.7
2017-11-13T10:29:21.570Z,57.0
2017-11-13T10:30:43.074Z,56.9
2017-11-13T10:31:44.470Z,56.7
2017-11-13T10:33:05.946Z,57.1
2017-11-13T10:34:07.339Z,56.6
2017-11-13T10:35:28.819Z,56.5
2017-11-13T10:36:30.210Z,56.5
2017-11-13T10:37:51.707Z,56.4
2017-11-13T10:38:53.099Z,56.2
2017-11-13T10:40:14.578Z,56.5
2017-11-13T10:41:15.979Z,57.0
2017-11-13T10:42:37.459Z,56.9
2017-11-13T10:43:38.863Z,56.7
2017-11-13T10:45:00.354Z,57.2
2017-11-13T10:46:01.747Z,57.2
2017-11-13T10:47:23.227Z,57.3
2017-11-13T10:48:24.619Z,57.3
2017-11-13T10:49:46.099Z,57.1
2017-11-13T10:50:47.492Z,57.5
2017-11-13T10:52:08.995Z,57.5
2017-11-13T10:53:10.387Z,57.6
2017-11-13T10:54:31.875Z,57.7
2017-11-13T10:55:33.267Z,57.4
2017-11-13T10:56:54.748Z,57.6
2017-11-13T10:57:56.139Z,57.0
2017-11-13T10:59:17.651Z,57.1
2017-11-13T11:00:19.052Z,56.8
2017-11-13T11:01:40.545Z,56.8
2017-11-13T11:02:41.933Z,56.4
2017-11-13T11:04:03.411Z,56.2
2017-11-13T11:05:04.803Z,56.4
2017-11-13T11:06:26.292Z,56.5
2017-11-13T11:07:27.683Z,56.8
2017-11-13T11:08:49.172Z,57.0
2017-11-13T11:09:50.563Z,57.0
2017-11-13T11:11:12.091Z,57.0
2017-11-13T11:12:13.483Z,57.2
2017-11-13T11:13:34.980Z,57.0
2017-11-13T11:14:36.372Z,56.9
2017-11-13T11:15:57.853Z,57.2
2017-11-13T11:16:59.243Z,57.7
2017-11-13T11:18:20.733Z,57.2
2017-11-13T11:19:22.124Z,57.5
2017-11-13T11:20:43.612Z,57.4
2017-11-13T11:21:45.003Z,58.6
2017-11-13T11:23:06.483Z,58.1
2017-11-13T11:24:07.876Z,57.6
2017-11-13T11:25:29.357Z,57.8
2017-11-13T11:26:30.751Z,57.8
2017-11-13T11:27:52.412Z,57.7
2017-11-13T11:28:53.796Z,57.4
2017-11-13T11:30:15.276Z,57.6
2017-11-13T11:31:16.668Z,58.1
2017-11-13T11:32:38.163Z,58.2
2017-11-13T11:33:39.549Z,58.2
2017-11-13T11:35:01.052Z,58.3
2017-11-13T11:36:02.445Z,58.7
2017-11-13T11:37:23.924Z,58.3
2017-11-13T11:38:25.317Z,58.4
2017-11-13T11:39:46.804Z,58.4
2017-11-13T11:40:48.196Z,58.3
2017-11-13T11:42:09.693Z,58.5
2017-11-13T11:43:11.084Z,58.3
2017-11-13T11:44:32.566Z,58.1
2017-11-13T11:45:33.957Z,58.3
2017-11-13T11:46:55.509Z,58.7
2017-11-13T11:47:56.868Z,58.2
2017-11-13T11:49:18.373Z,58.7
2017-11-13T11:50:19.765Z,58.4
2017-11-13T11:51:41.245Z,58.6
2017-11-13T11:52:42.867Z,58.6
2017-11-13T11:54:04.356Z,58.5
2017-11-13T11:55:05.749Z,58.5
2017-11-13T11:56:27.237Z,58.5
2017-11-13T11:57:28.628Z,58.6
2017-11-13T11:58:50.109Z,58.5
2017-11-13T11:59:51.501Z,59.0
2017-11-13T12:01:12.981Z,58.9
2017-11-13T12:02:14.372Z,58.9
2017-11-13T12:03:35.869Z,58.8
2017-11-13T12:04:37.260Z,58.9
2017-11-13T12:05:58.748Z,58.6
2017-11-13T12:07:00.141Z,58.3
2017-11-13T12:08:21.621Z,58.6
2017-11-13T12:09:23.013Z,58.5
2017-11-13T12:10:44.517Z,58.3
2017-11-13T12:11:45.917Z,58.1
2017-11-13T12:13:07.405Z,58.6
2017-11-13T12:14:08.797Z,58.4
2017-11-13T12:15:30.285Z,58.2
2017-11-13T12:16:31.677Z,58.4
2017-11-13T12:17:53.283Z,58.5
2017-11-13T12:18:54.669Z,58.3
2017-11-13T12:20:16.149Z,58.4
2017-11-13T12:21:17.541Z,58.7
2017-11-13T12:22:39.024Z,58.7
2017-11-13T12:23:40.414Z,58.5
2017-11-13T12:25:02.025Z,58.7
2017-11-13T12:26:03.414Z,58.5
2017-11-13T12:27:24.894Z,58.9
2017-11-13T12:28:26.286Z,58.6
2017-11-13T12:29:48.013Z,58.4
2017-11-13T12:30:49.406Z,58.7
2017-11-13T12:32:10.989Z,58.6
2017-11-13T12:33:12.382Z,58.4
2017-11-13T12:34:33.869Z,58.3
2017-11-13T12:35:35.264Z,58.4
2017-11-13T12:36:56.743Z,58.3
2017-11-13T12:37:58.133Z,58.0
2017-11-13T12:39:19.638Z,58.4
2017-11-13T12:40:21.038Z,58.2
2017-11-13T12:41:42.527Z,58.1
2017-11-13T12:42:43.919Z,58.4
2017-11-13T12:44:05.398Z,58.3
2017-11-13T12:45:06.792Z,58.2
2017-11-13T12:46:28.289Z,58.4
2017-11-13T12:47:29.678Z,58.4
2017-11-13T12:48:51.166Z,58.4
2017-11-13T12:49:52.559Z,58.5
2017-11-13T12:51:14.039Z,58.3
2017-11-13T12:52:15.438Z,58.7
2017-11-13T12:53:36.942Z,58.9
2017-11-13T12:54:38.334Z,58.8
2017-11-13T12:55:59.822Z,59.4
2017-11-13T12:57:01.219Z,59.1
2017-11-13T12:58:22.694Z,59.7
2017-11-13T12:59:24.087Z,59.8
2017-11-13T13:00:45.584Z,59.5
2017-11-13T13:01:46.975Z,60.3
2017-11-13T13:03:08.462Z,60.3
2017-11-13T13:04:09.855Z,60.5
2017-11-13T13:05:31.335Z,60.3
2017-11-13T13:06:32.727Z,60.3
2017-11-13T13:07:54.231Z,61.0
2017-11-13T13:08:55.634Z,60.7
2017-11-13T13:10:17.120Z,60.7
2017-11-13T13:11:18.510Z,60.9
2017-11-13T13:12:39.994Z,61.3
2017-11-13T13:13:41.382Z,60.9
2017-11-13T13:15:02.879Z,61.1
2017-11-13T13:16:04.275Z,61.3
2017-11-13T13:17:25.752Z,61.3
2017-11-13T13:18:27.144Z,61.5
2017-11-13T13:19:48.624Z,61.3
2017-11-13T13:20:50.015Z,61.7
2017-11-13T13:22:11.511Z,61.9
2017-11-13T13:23:12.903Z,62.0
2017-11-13T13:24:34.392Z,62.2
2017-11-13T13:25:35.784Z,62.0
2017-11-13T13:26:57.272Z,62.1
2017-11-13T13:27:58.664Z,61.8
2017-11-13T13:29:20.312Z,61.9
2017-11-13T13:30:21.703Z,61.9
2017-11-13T13:31:43.192Z,62.0
2017-11-13T13:32:44.584Z,61.9
2017-11-13T13:34:06.064Z,61.9
2017-11-13T13:35:07.456Z,62.2
2017-11-13T13:36:28.936Z,61.7
2017-11-13T13:37:30.351Z,61.9
2017-11-13T13:38:51.808Z,62.1
2017-11-13T13:39:53.207Z,62.0
2017-11-13T13:41:14.695Z,62.2
2017-11-13T13:42:16.096Z,62.1
2017-11-13T13:43:37.600Z,62.4
2017-11-13T13:44:38.992Z,62.6
2017-11-13T13:46:00.480Z,62.6
2017-11-13T13:47:01.872Z,62.5
2017-11-13T13:48:23.352Z,62.6
2017-11-13T13:49:24.753Z,62.5
2017-11-13T13:50:46.529Z,62.5
2017-11-13T13:51:47.928Z,62.2
2017-11-13T13:53:09.416Z,61.9
2017-11-13T13:54:10.816Z,62.2
2017-11-13T13:55:32.304Z,61.5
2017-11-13T13:56:33.696Z,61.6
2017-11-13T13:57:55.296Z,61.3
2017-11-13T13:58:56.696Z,61.7
2017-11-13T14:00:18.176Z,62.0
2017-11-13T14:01:19.569Z,61.6
2017-11-13T14:02:41.057Z,61.4
2017-11-13T14:03:42.448Z,61.7
2017-11-13T14:05:03.958Z,61.1
2017-11-13T14:06:05.345Z,61.1
2017-11-13T14:07:26.832Z,61.1
2017-11-13T14:08:28.225Z,61.3
2017-11-13T14:09:49.705Z,61.3
2017-11-13T14:10:51.104Z,61.3
2017-11-13T14:12:12.610Z,61.0
2017-11-13T14:13:13.992Z,60.7
2017-11-13T14:14:35.473Z,60.9
2017-11-13T14:15:36.864Z,61.1
2017-11-13T14:16:58.344Z,61.2
2017-11-13T14:17:59.741Z,61.1
2017-11-13T14:19:21.241Z,61.3
2017-11-13T14:20:22.632Z,60.9
2017-11-13T14:21:44.112Z,60.8
2017-11-13T14:22:45.504Z,60.5
2017-11-13T14:24:06.992Z,60.6
2017-11-13T14:25:08.384Z,60.4
2017-11-13T14:26:29.890Z,60.4
2017-11-13T14:27:31.281Z,60.6
2017-11-13T14:28:52.768Z,60.6
2017-11-13T14:29:54.161Z,60.7
2017-11-13T14:31:15.641Z,60.9
2017-11-13T14:32:17.032Z,60.7
2017-11-13T14:33:38.528Z,60.8
2017-11-13T14:34:39.928Z,60.7
2017-11-13T14:36:01.409Z,60.6
2017-11-13T14:37:02.801Z,60.3
2017-11-13T14:38:24.281Z,60.4
2017-11-13T14:39:25.676Z,60.6
2017-11-13T14:40:47.180Z,60.3
2017-11-13T14:41:48.569Z,60.3
2017-11-13T14:43:10.057Z,60.2
2017-11-13T14:44:11.449Z,60.3
2017-11-13T14:45:32.937Z,60.3
2017-11-13T14:46:34.329Z,60.3
2017-11-13T14:47:55.817Z,60.2
2017-11-13T14:48:57.209Z,60.4
2017-11-13T14:50:18.697Z,60.4
2017-11-13T14:51:20.089Z,60.4
2017-11-13T14:52:41.573Z,61.3
2017-11-13T14:53:42.962Z,60.9
2017-11-13T14:55:04.457Z,60.6
2017-11-13T14:56:05.850Z,60.5
2017-11-13T14:57:27.329Z,60.9
2017-11-13T14:58:28.722Z,60.4
2017-11-13T14:59:50.205Z,60.6
2017-11-13T15:00:51.593Z,60.4
2017-11-13T15:02:13.097Z,60.8
2017-11-13T15:03:14.490Z,60.5
2017-11-13T15:04:35.977Z,60.2
2017-11-13T15:05:37.369Z,60.3
2017-11-13T15:06:58.857Z,60.3
2017-11-13T15:08:00.249Z,60.3
2017-11-13T15:09:21.745Z,60.3
2017-11-13T15:10:23.137Z,60.4
2017-11-13T15:11:44.625Z,60.7
2017-11-13T15:12:46.019Z,60.2
2017-11-13T15:14:07.505Z,60.5
2017-11-13T15:15:08.897Z,60.6
2017-11-13T15:16:30.397Z,60.7
2017-11-13T15:17:31.786Z,60.5
2017-11-13T15:18:53.275Z,60.5
2017-11-13T15:19:54.665Z,60.5
2017-11-13T15:21:16.150Z,60.5
2017-11-13T15:22:17.538Z,60.6
2017-11-13T15:23:39.036Z,60.4
2017-11-13T15:24:40.426Z,60.3
2017-11-13T15:26:01.914Z,60.3
2017-11-13T15:27:03.308Z,60.6
2017-11-13T15:28:24.794Z,60.5
2017-11-13T15:29:26.186Z,60.5
2017-11-13T15:30:47.690Z,60.5
2017-11-13T15:31:49.082Z,60.5
2017-11-13T15:33:10.562Z,60.6
2017-11-13T15:34:11.956Z,60.4
2017-11-13T15:35:33.442Z,60.5
2017-11-13T15:36:34.834Z,60.4
2017-11-13T15:37:56.330Z,60.2
2017-11-13T15:38:57.722Z,60.1
2017-11-13T15:40:19.202Z,60.3
2017-11-13T15:41:20.595Z,60.3
2017-11-13T15:42:42.074Z,60.6
2017-11-13T15:43:43.466Z,60.3
2017-11-13T15:45:04.963Z,60.5
2017-11-13T15:46:06.354Z,60.6
2017-11-13T15:47:27.834Z,60.9
2017-11-13T15:48:29.226Z,60.8
2017-11-13T15:49:50.714Z,60.9
2017-11-13T15:50:52.106Z,60.9